createdAt,value
2022-10-12T00:00:30.191Z,100454.01
2022-10-12T00:03:03.061Z,100451.59
2022-10-12T00:05:36.511Z,100446.27
2022-10-12T00:08:09.935Z,100455.09
2022-10-12T00:10:46.374Z,100447.16
2022-10-12T00:13:19.765Z,100451.08
2022-10-12T00:15:54.483Z,100448.47
2022-10-12T00:18:27.394Z,100451.40
2022-10-12T00:21:12.298Z,100453.22
2022-10-12T00:23:46.406Z,100461.05
2022-10-12T00:26:21.020Z,100464.34
2022-10-12T00:29:02.572Z,100463.27
2022-10-12T00:31:35.533Z,100458.88
2022-10-12T00:34:09.009Z,100462.49
2022-10-12T00:36:42.047Z,100461.31
2022-10-12T00:39:14.961Z,100466.02
2022-10-12T00:41:47.745Z,100464.81
2022-10-12T00:44:45.084Z,100472.95
2022-10-12T00:47:34.249Z,100467.13
2022-10-12T00:50:28.120Z,100474.63
2022-10-12T00:53:13.184Z,100469.93
2022-10-12T00:55:55.805Z,100467.83
2022-10-12T00:58:33.606Z,100468.82
2022-10-12T01:01:07.808Z,100466.53
2022-10-12T01:03:40.969Z,100468.11
2022-10-12T01:06:14.312Z,100465.92
2022-10-12T01:08:48.159Z,100466.61
2022-10-12T01:11:20.978Z,100467.13
2022-10-12T01:13:54.159Z,100474.44
2022-10-12T01:16:46.457Z,100482.58
2022-10-12T01:19:32.932Z,100482.99
2022-10-12T01:22:09.734Z,100483.69
2022-10-12T01:25:00.515Z,100487.50
2022-10-12T01:27:54.459Z,100498.25
2022-10-12T01:30:30.897Z,100499.04
2022-10-12T01:33:14.078Z,100502.97
2022-10-12T01:36:03.807Z,100500.47
2022-10-12T01:38:59.079Z,100502.16
2022-10-12T01:41:39.442Z,100508.69
2022-10-12T01:44:12.252Z,100508.70
2022-10-12T01:46:46.444Z,100506.78
2022-10-12T01:49:23.808Z,100510.48
2022-10-12T01:52:13.851Z,100506.38
2022-10-12T01:55:29.289Z,100514.19
2022-10-12T01:58:38.168Z,100518.92
2022-10-12T02:01:33.958Z,100517.11
2022-10-12T02:04:31.591Z,100514.91
2022-10-12T02:07:08.432Z,100520.50
2022-10-12T02:09:43.468Z,100521.42
2022-10-12T02:12:20.169Z,100525.23
2022-10-12T02:14:57.750Z,100526.13
2022-10-12T02:17:32.975Z,100525.03
2022-10-12T02:20:07.666Z,100525.13
2022-10-12T02:22:41.819Z,100528.35
2022-10-12T02:25:18.297Z,100526.74
2022-10-12T02:28:01.414Z,100523.25
2022-10-12T02:30:41.532Z,100531.17
2022-10-12T02:33:21.833Z,100518.30
2022-10-12T02:36:01.909Z,100531.44
2022-10-12T02:38:42.146Z,100522.41
2022-10-12T02:41:20.723Z,100532.05
2022-10-12T02:44:01.914Z,100537.27
2022-10-12T02:46:35.911Z,100541.59
2022-10-12T02:49:09.481Z,100538.47
2022-10-12T02:51:44.012Z,100546.80
2022-10-12T02:54:17.778Z,100544.58
2022-10-12T02:56:50.847Z,100542.48
2022-10-12T02:59:23.891Z,100548.21
2022-10-12T03:01:57.126Z,100554.22
2022-10-12T03:04:30.095Z,100549.31
2022-10-12T03:07:03.902Z,100547.39
2022-10-12T03:09:37.085Z,100555.11
2022-10-12T03:12:10.769Z,100551.92
2022-10-12T03:14:43.790Z,100558.50
2022-10-12T03:17:17.738Z,100558.70
2022-10-12T03:19:51.185Z,100554.59
2022-10-12T03:22:24.224Z,100550.06
2022-10-12T03:24:59.402Z,100559.39
2022-10-12T03:27:32.517Z,100558.66
2022-10-12T03:30:05.959Z,100561.23
2022-10-12T03:32:40.777Z,100557.11
2022-10-12T03:35:14.184Z,100563.35
2022-10-12T03:37:47.274Z,100561.74
2022-10-12T03:40:20.285Z,100565.86
2022-10-12T03:42:53.072Z,100556.13
2022-10-12T03:45:26.596Z,100564.76
2022-10-12T03:48:03.859Z,100565.95
2022-10-12T03:50:35.226Z,100564.03
2022-10-12T03:53:08.627Z,100569.03
2022-10-12T03:55:42.839Z,100567.22
2022-10-12T03:58:16.242Z,100566.32
2022-10-12T04:00:49.410Z,100567.62
2022-10-12T04:03:23.009Z,100576.23
2022-10-12T04:05:58.095Z,100573.52
2022-10-12T04:08:31.718Z,100576.13
2022-10-12T04:11:04.794Z,100569.02
2022-10-12T04:13:38.738Z,100574.75
2022-10-12T04:16:12.177Z,100580.03
2022-10-12T04:18:46.414Z,100577.84
2022-10-12T04:21:19.770Z,100578.83
2022-10-12T04:23:52.630Z,100580.44
2022-10-12T04:26:25.486Z,100574.34
2022-10-12T04:28:59.342Z,100587.68
2022-10-12T04:31:33.174Z,100583.88
2022-10-12T04:34:07.745Z,100584.25
2022-10-12T04:36:41.452Z,100585.28
2022-10-12T04:39:14.462Z,100587.89
2022-10-12T04:41:47.988Z,100593.69
2022-10-12T04:44:21.206Z,100603.02
2022-10-12T04:46:54.074Z,100605.36
2022-10-12T04:49:27.449Z,100603.45
2022-10-12T04:52:00.242Z,100602.39
2022-10-12T04:54:34.553Z,100609.52
2022-10-12T04:57:07.353Z,100600.20
2022-10-12T04:59:40.739Z,100606.24
2022-10-12T05:02:13.695Z,100606.83
2022-10-12T05:04:47.184Z,100608.86
2022-10-12T05:07:19.869Z,100616.69
2022-10-12T05:09:54.033Z,100618.98
2022-10-12T05:12:27.029Z,100618.81
2022-10-12T05:15:00.237Z,100622.83
2022-10-12T05:17:33.112Z,100629.72
2022-10-12T05:20:08.242Z,100634.15
2022-10-12T05:22:42.269Z,100630.23
2022-10-12T05:25:15.294Z,100635.45
2022-10-12T05:27:48.223Z,100638.95
2022-10-12T05:30:21.191Z,100643.28
2022-10-12T05:32:55.227Z,100644.48
2022-10-12T05:35:28.290Z,100644.37
2022-10-12T05:38:01.568Z,100645.57
2022-10-12T05:40:34.614Z,100650.89
2022-10-12T05:43:07.779Z,100648.08
2022-10-12T05:45:40.538Z,100649.48
2022-10-12T05:48:13.386Z,100649.11
2022-10-12T05:50:47.131Z,100652.09
2022-10-12T05:53:20.337Z,100649.11
2022-10-12T05:55:59.578Z,100646.61
2022-10-12T05:58:32.892Z,100650.90
2022-10-12T06:01:11.826Z,100653.44
2022-10-12T06:03:44.835Z,100653.03
2022-10-12T06:06:19.277Z,100645.62
2022-10-12T06:08:52.097Z,100644.72
2022-10-12T06:11:26.220Z,100649.56
2022-10-12T06:13:59.582Z,100655.66
2022-10-12T06:16:33.305Z,100658.48
2022-10-12T06:19:06.974Z,100656.96
2022-10-12T06:21:41.154Z,100658.98
2022-10-12T06:24:14.245Z,100661.48
2022-10-12T06:26:47.870Z,100664.39
2022-10-12T06:29:22.507Z,100670.33
2022-10-12T06:31:55.537Z,100662.18
2022-10-12T06:34:29.133Z,100663.78
2022-10-12T06:37:02.351Z,100665.17
2022-10-12T06:39:35.598Z,100670.89
2022-10-12T06:42:09.670Z,100671.48
2022-10-12T06:44:44.953Z,100673.98
2022-10-12T06:47:18.626Z,100679.50
2022-10-12T06:49:51.548Z,100676.77
2022-10-12T06:52:24.571Z,100677.37
2022-10-12T06:54:58.233Z,100672.76
2022-10-12T06:57:31.698Z,100675.66
2022-10-12T07:00:05.016Z,100684.69
2022-10-12T07:02:38.430Z,100677.23
2022-10-12T07:05:11.706Z,100677.11
2022-10-12T07:07:46.607Z,100673.66
2022-10-12T07:10:21.020Z,100670.63
2022-10-12T07:12:54.174Z,100676.84
2022-10-12T07:15:27.171Z,100670.45
2022-10-12T07:18:01.569Z,100679.28
2022-10-12T07:20:34.730Z,100680.13
2022-10-12T07:23:08.226Z,100681.90
2022-10-12T07:25:41.956Z,100684.09
2022-10-12T07:28:15.237Z,100684.93
2022-10-12T07:30:50.364Z,100681.46
2022-10-12T07:33:23.195Z,100681.73
2022-10-12T07:36:13.245Z,100682.10
2022-10-12T07:38:32.045Z,100674.99
2022-10-12T07:41:06.613Z,100673.57
2022-10-12T07:43:39.532Z,100678.33
2022-10-12T07:46:12.824Z,100673.86
2022-10-12T07:48:50.188Z,100681.15
2022-10-12T07:51:21.179Z,100674.78
2022-10-12T07:53:54.360Z,100673.73
2022-10-12T07:56:29.063Z,100672.22
2022-10-12T07:59:02.448Z,100676.38
2022-10-12T08:01:36.022Z,100682.30
2022-10-12T08:04:09.156Z,100682.56
2022-10-12T08:06:44.511Z,100677.66
2022-10-12T08:09:18.020Z,100677.92
2022-10-12T08:11:51.135Z,100675.95
2022-10-12T08:14:24.865Z,100676.97
2022-10-12T08:16:58.289Z,100669.27
2022-10-12T08:19:35.334Z,100668.42
2022-10-12T08:22:06.821Z,100671.35
2022-10-12T08:24:40.343Z,100671.13
2022-10-12T08:27:13.537Z,100670.25
2022-10-12T08:29:48.139Z,100666.15
2022-10-12T08:32:21.027Z,100666.23
2022-10-12T08:34:54.339Z,100668.59
2022-10-12T08:37:29.891Z,100667.11
2022-10-12T08:40:03.746Z,100665.50
2022-10-12T08:42:44.689Z,100661.31
2022-10-12T08:45:30.594Z,100665.08
2022-10-12T08:48:10.473Z,100654.66
2022-10-12T08:50:50.815Z,100661.64
2022-10-12T08:53:31.196Z,100659.52
2022-10-12T08:56:04.575Z,100657.37
2022-10-12T08:58:41.815Z,100653.44
2022-10-12T09:01:39.166Z,100659.35
2022-10-12T09:04:48.177Z,100658.51
2022-10-12T09:07:42.934Z,100659.01
2022-10-12T09:10:41.177Z,100651.14
2022-10-12T09:13:50.258Z,100653.77
2022-10-12T09:16:29.175Z,100656.39
2022-10-12T09:19:07.325Z,100652.45
2022-10-12T09:21:41.763Z,100656.72
2022-10-12T09:24:22.726Z,100656.95
2022-10-12T09:27:00.786Z,100651.37
2022-10-12T09:29:34.344Z,100648.91
2022-10-12T09:32:31.590Z,100639.16
2022-10-12T09:35:05.396Z,100637.58
2022-10-12T09:37:39.237Z,100638.70
2022-10-12T09:40:33.397Z,100635.62
2022-10-12T09:43:06.909Z,100640.18
2022-10-12T09:45:40.487Z,100635.59
2022-10-12T09:48:20.809Z,100634.75
2022-10-12T09:50:58.337Z,100632.63
2022-10-12T09:53:41.055Z,100639.42
2022-10-12T09:56:24.464Z,100637.03
2022-10-12T09:59:05.689Z,100635.38
2022-10-12T10:01:38.837Z,100643.83
2022-10-12T10:04:18.333Z,100630.36
2022-10-12T10:06:51.590Z,100637.84
2022-10-12T10:09:37.240Z,100638.31
2022-10-12T10:12:25.667Z,100640.52
2022-10-12T10:15:00.276Z,100634.88
2022-10-12T10:17:35.728Z,100626.80
2022-10-12T10:20:08.749Z,100634.09
2022-10-12T10:22:49.138Z,100623.83
2022-10-12T10:25:24.524Z,100619.89
2022-10-12T10:28:24.279Z,100626.18
2022-10-12T10:31:02.731Z,100619.34
2022-10-12T10:33:37.917Z,100615.55
2022-10-12T10:36:24.791Z,100617.87
2022-10-12T10:39:05.635Z,100606.97
2022-10-12T10:41:41.539Z,100618.94
2022-10-12T10:44:34.881Z,100620.64
2022-10-12T10:47:13.464Z,100617.20
2022-10-12T10:49:59.490Z,100615.62
2022-10-12T10:52:37.135Z,100609.70
2022-10-12T10:55:23.128Z,100606.87
2022-10-12T10:58:07.965Z,100606.13
2022-10-12T11:00:43.771Z,100606.66
2022-10-12T11:03:45.960Z,100609.72
2022-10-12T11:06:28.999Z,100608.91
2022-10-12T11:09:25.969Z,100606.34
2022-10-12T11:12:09.509Z,100603.37
2022-10-12T11:14:46.795Z,100603.94
2022-10-12T11:17:25.573Z,100617.08
2022-10-12T11:20:44.789Z,100602.48
2022-10-12T11:23:40.092Z,100613.80
2022-10-12T11:26:23.287Z,100605.35
2022-10-12T11:29:00.405Z,100613.66
2022-10-12T11:31:40.264Z,100603.15
2022-10-12T11:34:19.174Z,100610.68
2022-10-12T11:37:18.666Z,100604.46
2022-10-12T11:39:45.163Z,100609.57
2022-10-12T11:42:23.134Z,100596.44
2022-10-12T11:44:56.317Z,100609.72
2022-10-12T11:47:45.831Z,100605.25
2022-10-12T11:50:37.360Z,100595.70
2022-10-12T11:53:21.252Z,100600.25
2022-10-12T11:56:10.986Z,100603.88
2022-10-12T11:59:00.554Z,100606.16
2022-10-12T12:01:52.999Z,100601.72
2022-10-12T12:04:48.256Z,100591.70
2022-10-12T12:07:42.719Z,100594.76
2022-10-12T12:10:35.564Z,100601.79
2022-10-12T12:13:23.629Z,100600.08
2022-10-12T12:16:01.326Z,100600.55
2022-10-12T12:18:56.688Z,100603.17
2022-10-12T12:21:29.917Z,100600.47
2022-10-12T12:24:03.045Z,100607.05
2022-10-12T12:26:36.533Z,100603.60
2022-10-12T12:29:28.370Z,100595.30
2022-10-12T12:32:02.791Z,100598.56
2022-10-12T12:34:36.653Z,100596.43
2022-10-12T12:37:16.731Z,100601.19
2022-10-12T12:39:55.135Z,100601.69
2022-10-12T12:42:31.490Z,100604.78
2022-10-12T12:45:38.169Z,100607.91
2022-10-12T12:48:13.289Z,100602.64
2022-10-12T12:50:46.964Z,100604.78
2022-10-12T12:53:22.027Z,100603.00
2022-10-12T12:56:27.069Z,100602.00
2022-10-12T12:59:32.579Z,100596.28
2022-10-12T13:02:16.313Z,100605.48
2022-10-12T13:05:06.032Z,100607.62
2022-10-12T13:07:59.127Z,100608.11
2022-10-12T13:11:03.877Z,100603.17
2022-10-12T13:13:50.234Z,100600.91
2022-10-12T13:19:16.579Z,100603.03
2022-10-12T13:21:51.889Z,100606.51
2022-10-12T13:24:34.553Z,100607.75
2022-10-12T13:27:27.432Z,100607.67
2022-10-12T13:30:14.051Z,100607.67
2022-10-12T13:33:06.631Z,100608.92
2022-10-12T13:35:51.599Z,100614.98
2022-10-12T13:38:30.504Z,100614.91
2022-10-12T13:41:15.993Z,100612.22
2022-10-12T13:44:05.814Z,100612.14
2022-10-12T13:49:46.012Z,100609.64
2022-10-12T13:52:32.831Z,100609.77
2022-10-12T13:55:17.571Z,100608.30
2022-10-12T13:57:50.913Z,100610.28
2022-10-12T14:00:30.477Z,100611.88
2022-10-12T14:03:09.484Z,100610.41
2022-10-12T14:05:47.641Z,100604.47
2022-10-12T14:08:27.438Z,100599.92
2022-10-12T14:11:02.001Z,100606.25
2022-10-12T14:13:36.782Z,100604.72
2022-10-12T14:16:10.151Z,100608.92
2022-10-12T14:18:46.335Z,100611.32
2022-10-12T14:21:34.574Z,100609.27
2022-10-12T14:24:11.928Z,100618.31
2022-10-12T14:26:48.198Z,100620.23
2022-10-12T14:29:47.395Z,100616.30
2022-10-12T14:32:26.759Z,100616.48
2022-10-12T14:35:27.821Z,100615.70
2022-10-12T14:38:01.871Z,100613.14
2022-10-12T14:40:40.225Z,100618.42
2022-10-12T14:43:20.870Z,100621.14
2022-10-12T14:45:54.617Z,100620.90
2022-10-12T14:48:28.067Z,100620.10
2022-10-12T14:51:01.108Z,100621.48
2022-10-12T14:53:34.251Z,100623.69
2022-10-12T14:56:09.646Z,100626.91
2022-10-12T14:58:42.956Z,100625.27
2022-10-12T15:01:15.844Z,100623.20
2022-10-12T15:03:49.949Z,100624.68
2022-10-12T15:06:23.110Z,100620.92
2022-10-12T15:08:56.045Z,100618.73
2022-10-12T15:11:29.904Z,100624.05
2022-10-12T15:14:02.772Z,100622.91
2022-10-12T15:16:36.066Z,100626.08
2022-10-12T15:19:09.941Z,100628.44
2022-10-12T15:21:43.796Z,100621.55
2022-10-12T15:24:17.248Z,100626.86
2022-10-12T15:26:50.414Z,100628.33
2022-10-12T15:29:24.058Z,100629.80
2022-10-12T15:31:58.621Z,100628.13
2022-10-12T15:34:31.442Z,100625.58
2022-10-12T15:37:08.827Z,100626.12
2022-10-12T15:39:41.869Z,100633.29
2022-10-12T15:42:17.422Z,100637.28
2022-10-12T15:44:51.021Z,100634.39
2022-10-12T15:47:23.948Z,100638.55
2022-10-12T15:49:56.895Z,100641.80
2022-10-12T15:52:30.505Z,100639.41
2022-10-12T15:55:05.108Z,100642.17
2022-10-12T15:57:37.936Z,100643.53
2022-10-12T16:00:12.516Z,100645.78
2022-10-12T16:02:44.932Z,100643.37
2022-10-12T16:05:28.315Z,100645.56
2022-10-12T16:08:02.577Z,100645.09
2022-10-12T16:10:42.121Z,100644.31
2022-10-12T16:13:16.900Z,100649.26
2022-10-12T16:15:50.574Z,100652.90
2022-10-12T16:18:23.486Z,100651.82
2022-10-12T16:20:58.397Z,100657.09
2022-10-12T16:23:35.651Z,100655.27
2022-10-12T16:26:12.919Z,100650.78
2022-10-12T16:28:45.747Z,100661.16
2022-10-12T16:31:19.533Z,100661.00
2022-10-12T16:33:52.316Z,100666.12
2022-10-12T16:36:26.135Z,100662.03
2022-10-12T16:39:00.070Z,100658.83
2022-10-12T16:41:34.271Z,100662.66
2022-10-12T16:44:08.472Z,100660.58
2022-10-12T16:46:41.617Z,100661.88
2022-10-12T16:49:15.166Z,100662.08
2022-10-12T16:51:49.901Z,100664.08
2022-10-12T16:54:25.294Z,100670.44
2022-10-12T16:57:03.561Z,100670.23
2022-10-12T16:59:38.707Z,100670.93
2022-10-12T17:02:14.381Z,100671.52
2022-10-12T17:04:48.636Z,100672.72
2022-10-12T17:07:22.404Z,100673.23
2022-10-12T17:09:59.189Z,100672.52
2022-10-12T17:12:32.306Z,100668.23
2022-10-12T17:15:07.376Z,100665.31
2022-10-12T17:17:41.357Z,100670.70
2022-10-12T17:20:15.782Z,100669.71
2022-10-12T17:22:49.305Z,100667.89
2022-10-12T17:25:22.375Z,100670.50
2022-10-12T17:27:55.560Z,100671.81
2022-10-12T17:30:28.721Z,100664.39
2022-10-12T17:33:01.611Z,100665.18
2022-10-12T17:35:34.894Z,100663.77
2022-10-12T17:38:11.479Z,100658.08
2022-10-12T17:40:44.567Z,100667.20
2022-10-12T17:43:18.018Z,100663.09
2022-10-12T17:45:51.181Z,100661.06
2022-10-12T17:48:26.434Z,100661.58
2022-10-12T17:51:06.328Z,100665.66
2022-10-12T17:53:42.853Z,100667.06
2022-10-12T17:56:19.014Z,100661.43
2022-10-12T17:59:01.320Z,100658.41
2022-10-12T18:01:35.665Z,100658.91
2022-10-12T18:04:09.218Z,100655.99
2022-10-12T18:06:42.697Z,100662.41
2022-10-12T18:09:15.986Z,100660.69
2022-10-12T18:11:49.275Z,100662.51
2022-10-12T18:14:23.937Z,100667.62
2022-10-12T18:16:58.590Z,100671.02
2022-10-12T18:19:32.929Z,100663.91
2022-10-12T18:22:06.128Z,100666.00
2022-10-12T18:24:40.744Z,100672.92
2022-10-12T18:27:14.150Z,100664.17
2022-10-12T18:29:47.412Z,100670.48
2022-10-12T18:32:21.095Z,100674.13
2022-10-12T18:34:54.928Z,100671.52
2022-10-12T18:37:29.065Z,100677.52
2022-10-12T18:40:02.318Z,100677.81
2022-10-12T18:42:36.061Z,100672.61
2022-10-12T18:45:10.330Z,100675.48
2022-10-12T18:47:43.312Z,100678.09
2022-10-12T18:50:16.554Z,100680.31
2022-10-12T18:52:49.574Z,100682.11
2022-10-12T18:55:23.242Z,100686.42
2022-10-12T18:57:56.222Z,100686.21
2022-10-12T19:00:29.154Z,100690.69
2022-10-12T19:03:03.287Z,100685.95
2022-10-12T19:05:36.343Z,100691.35
2022-10-12T19:08:09.963Z,100692.70
2022-10-12T19:10:43.812Z,100687.58
2022-10-12T19:13:17.199Z,100691.68
2022-10-12T19:15:50.318Z,100692.77
2022-10-12T19:18:23.904Z,100687.34
2022-10-12T19:21:00.017Z,100695.45
2022-10-12T19:23:33.626Z,100696.53
2022-10-12T19:26:12.438Z,100691.48
2022-10-12T19:28:46.704Z,100693.87
2022-10-12T19:31:35.299Z,100701.98
2022-10-12T19:34:12.622Z,100694.58
2022-10-12T19:36:46.703Z,100692.34
2022-10-12T19:39:24.304Z,100690.67
2022-10-12T19:41:57.522Z,100689.36
2022-10-12T19:44:30.440Z,100691.16
2022-10-12T19:47:03.860Z,100692.75
2022-10-12T19:49:39.171Z,100687.55
2022-10-12T19:52:11.807Z,100698.97
2022-10-12T19:54:44.891Z,100688.55
2022-10-12T19:57:18.527Z,100694.27
2022-10-12T19:59:52.845Z,100687.14
2022-10-12T20:02:25.933Z,100690.15
2022-10-12T20:04:58.929Z,100692.86
2022-10-12T20:07:31.931Z,100689.73
2022-10-12T20:10:08.192Z,100692.08
2022-10-12T20:12:41.701Z,100687.98
2022-10-12T20:15:15.131Z,100702.53
2022-10-12T20:17:48.348Z,100712.16
2022-10-12T20:20:22.323Z,100693.63
2022-10-12T20:22:55.283Z,100700.91
2022-10-12T20:25:28.168Z,100701.34
2022-10-12T20:28:02.686Z,100699.55
2022-10-12T20:30:35.711Z,100696.62
2022-10-12T20:33:08.851Z,100700.95
2022-10-12T20:35:49.951Z,100707.06
2022-10-12T20:38:23.743Z,100704.05
2022-10-12T20:41:15.912Z,100705.30
2022-10-12T20:43:49.894Z,100700.51
2022-10-12T20:46:22.964Z,100704.81
2022-10-12T20:48:59.463Z,100707.36
2022-10-12T20:51:40.017Z,100700.75
2022-10-12T20:54:19.231Z,100704.08
2022-10-12T20:56:52.309Z,100701.27
2022-10-12T20:59:25.659Z,100695.34
2022-10-12T21:02:01.741Z,100701.39
2022-10-12T21:04:38.538Z,100702.01
2022-10-12T21:07:16.474Z,100707.02
2022-10-12T21:09:49.835Z,100709.53
2022-10-12T21:12:23.125Z,100703.22
2022-10-12T21:14:57.574Z,100698.10
2022-10-12T21:17:30.830Z,100701.13
2022-10-12T21:20:05.211Z,100697.59
2022-10-12T21:22:38.932Z,100702.91
2022-10-12T21:25:12.109Z,100705.63
2022-10-12T21:27:45.235Z,100702.22
2022-10-12T21:30:18.310Z,100695.39
2022-10-12T21:32:51.262Z,100695.12
2022-10-12T21:35:24.684Z,100691.69
2022-10-12T21:37:57.596Z,100692.09
2022-10-12T21:40:32.116Z,100697.21
2022-10-12T21:43:05.553Z,100694.50
2022-10-12T21:45:39.155Z,100701.33
2022-10-12T21:48:12.546Z,100698.89
2022-10-12T21:50:46.082Z,100701.22
2022-10-12T21:53:19.007Z,100697.00
2022-10-12T21:55:52.089Z,100702.59
2022-10-12T21:58:25.286Z,100697.47
2022-10-12T22:01:14.250Z,100693.92
2022-10-12T22:03:49.972Z,100688.91
2022-10-12T22:06:24.804Z,100694.43
2022-10-12T22:09:08.063Z,100691.72
2022-10-12T22:11:42.916Z,100689.00
2022-10-12T22:14:19.481Z,100690.20
2022-10-12T22:16:52.228Z,100696.88
2022-10-12T22:19:25.178Z,100696.08
2022-10-12T22:21:58.112Z,100683.63
2022-10-12T22:24:32.737Z,100701.87
2022-10-12T22:27:05.649Z,100691.13
2022-10-12T22:29:38.732Z,100684.33
2022-10-12T22:32:11.699Z,100688.83
2022-10-12T22:34:44.513Z,100693.88
2022-10-12T22:37:17.396Z,100692.80
2022-10-12T22:39:50.235Z,100693.58
2022-10-12T22:42:23.176Z,100687.06
2022-10-12T22:44:56.947Z,100681.44
2022-10-12T22:47:29.958Z,100685.05
2022-10-12T22:50:03.197Z,100686.56
2022-10-12T22:52:36.759Z,100684.87
2022-10-12T22:55:10.999Z,100680.97
2022-10-12T22:57:43.789Z,100675.86
2022-10-12T23:00:17.814Z,100674.56
2022-10-12T23:02:51.530Z,100667.94
2022-10-12T23:05:24.460Z,100670.13
2022-10-12T23:07:59.312Z,100676.54
2022-10-12T23:10:33.325Z,100681.76
2022-10-12T23:13:06.773Z,100676.23
2022-10-12T23:15:39.861Z,100672.05
2022-10-12T23:18:13.614Z,100671.45
2022-10-12T23:20:46.431Z,100673.78
2022-10-12T23:23:19.385Z,100679.16
2022-10-12T23:25:54.124Z,100681.66
2022-10-12T23:28:27.446Z,100682.97
2022-10-12T23:31:00.422Z,100688.80
2022-10-12T23:33:33.907Z,100686.30
2022-10-12T23:36:13.705Z,100675.56
2022-10-12T23:38:47.061Z,100670.56
2022-10-12T23:41:20.152Z,100671.66
2022-10-12T23:43:53.183Z,100672.69
2022-10-12T23:46:26.517Z,100664.56
2022-10-12T23:49:01.521Z,100667.69
2022-10-12T23:51:34.940Z,100657.36
2022-10-12T23:54:07.986Z,100657.15
2022-10-12T23:56:41.306Z,100653.34
2022-10-12T23:59:14.570Z,100656.47
